Time;durP1;ratioP1;P1;durP2;ratioP2;P2;SDS_P1;SDS_P2;PMS_P1;PMS_P2;Temp;Humidity;BMP_temperature;BMP_pressure;BME280_temperature;BME280_humidity;BME280_pressure;Samples;Min_cycle;Max_cycle;Signal;HPM_P1;HPM_P2
2023/09/25 00:00:34;;;;;;;0.85;0.60;;;9.90;99.90;;;;;;5052677;28;20289;-62
2023/09/25 00:03:03;;;;;;;0.43;0.43;;;9.90;99.90;;;;;;5052546;28;20202;-62
2023/09/25 00:05:30;;;;;;;0.50;0.50;;;9.80;99.90;;;;;;5052435;28;20193;-62
2023/09/25 00:07:56;;;;;;;0.50;0.50;;;9.70;99.90;;;;;;5051508;28;20220;-61
2023/09/25 00:10:22;;;;;;;1.50;1.40;;;9.70;99.90;;;;;;5052479;28;20591;-62
2023/09/25 00:12:48;;;;;;;1.48;1.42;;;9.60;99.90;;;;;;5052349;28;20214;-62
2023/09/25 00:15:14;;;;;;;0.60;0.50;;;9.50;99.90;;;;;;5052279;28;20610;-63
2023/09/25 00:17:42;;;;;;;0.63;0.60;;;9.50;99.90;;;;;;5052235;28;20170;-63
2023/09/25 00:20:10;;;;;;;0.52;0.52;;;9.50;99.90;;;;;;5052373;28;20475;-61
2023/09/25 00:22:40;;;;;;;1.40;0.88;;;9.50;99.90;;;;;;5052171;28;20661;-62
2023/09/25 00:25:06;;;;;;;0.73;0.73;;;9.60;99.90;;;;;;5052228;28;20241;-61
2023/09/25 00:27:32;;;;;;;0.60;0.60;;;9.60;99.90;;;;;;5051894;28;20174;-62
2023/09/25 00:29:58;;;;;;;0.43;0.43;;;9.60;99.90;;;;;;5052364;28;20667;-61
2023/09/25 00:32:24;;;;;;;0.40;0.40;;;9.60;99.90;;;;;;5052415;28;20199;-62
2023/09/25 00:34:50;;;;;;;0.60;0.60;;;9.50;99.90;;;;;;5052755;28;20695;-62
2023/09/25 00:37:15;;;;;;;1.47;1.23;;;9.50;99.90;;;;;;5051805;28;20727;-62
2023/09/25 00:39:42;;;;;;;0.60;0.60;;;9.40;99.90;;;;;;5051953;28;20284;-62
2023/09/25 00:42:10;;;;;;;0.57;0.57;;;9.40;99.90;;;;;;5034119;28;20190;-61
2023/09/25 00:44:36;;;;;;;0.50;0.50;;;9.40;99.90;;;;;;5051953;28;20166;-61
2023/09/25 00:47:01;;;;;;;0.40;0.40;;;9.20;99.90;;;;;;5051620;28;20536;-62
2023/09/25 00:49:30;;;;;;;0.40;0.40;;;9.20;99.90;;;;;;5051891;28;20412;-62
2023/09/25 00:51:55;;;;;;;0.40;0.40;;;9.10;99.90;;;;;;5051791;28;20283;-62
2023/09/25 00:54:21;;;;;;;1.80;0.73;;;9.10;99.90;;;;;;5052084;28;20202;-62
2023/09/25 00:56:48;;;;;;;0.50;0.50;;;9.00;99.90;;;;;;5051514;28;20257;-62
2023/09/25 00:59:15;;;;;;;0.73;0.73;;;9.00;99.90;;;;;;5033810;28;20212;-62
2023/09/25 01:01:41;;;;;;;1.00;1.00;;;9.00;99.90;;;;;;5051669;28;20220;-62
2023/09/25 01:04:08;;;;;;;0.55;0.55;;;8.90;99.90;;;;;;5051512;28;20209;-62
2023/09/25 01:06:34;;;;;;;0.40;0.40;;;8.90;99.90;;;;;;5051241;28;20165;-62
2023/09/25 01:09:00;;;;;;;0.55;0.55;;;8.80;99.90;;;;;;5051465;28;20186;-62
2023/09/25 01:11:25;;;;;;;0.53;0.53;;;8.80;99.90;;;;;;5051571;28;20174;-62
2023/09/25 01:13:51;;;;;;;1.17;1.13;;;8.80;99.90;;;;;;5051598;28;20545;-62
2023/09/25 01:16:18;;;;;;;0.40;0.40;;;8.80;99.90;;;;;;5051445;28;20328;-62
2023/09/25 01:18:44;;;;;;;0.88;0.70;;;8.90;99.90;;;;;;5051206;28;20225;-62
2023/09/25 01:21:11;;;;;;;0.47;0.47;;;8.80;99.90;;;;;;5050801;28;20209;-62
2023/09/25 01:23:37;;;;;;;0.40;0.40;;;8.90;99.90;;;;;;5051319;28;20874;-61
2023/09/25 01:26:04;;;;;;;0.95;0.70;;;8.90;99.90;;;;;;5050995;28;20691;-62
2023/09/25 01:28:30;;;;;;;0.40;0.40;;;8.90;99.90;;;;;;5051390;28;20588;-62
2023/09/25 01:30:56;;;;;;;0.40;0.40;;;8.80;99.90;;;;;;5051317;28;20198;-62
2023/09/25 01:33:22;;;;;;;0.90;0.90;;;8.80;99.90;;;;;;5051289;28;20201;-61
2023/09/25 01:35:47;;;;;;;0.50;0.50;;;8.80;99.90;;;;;;5051409;28;20288;-61
2023/09/25 01:38:13;;;;;;;0.40;0.40;;;8.70;99.90;;;;;;5051627;28;20204;-62
2023/09/25 01:40:39;;;;;;;2.00;0.80;;;8.70;99.90;;;;;;5051382;28;20212;-62
2023/09/25 01:43:04;;;;;;;0.50;0.50;;;8.70;99.90;;;;;;5051075;28;20206;-62
2023/09/25 01:45:30;;;;;;;0.40;0.40;;;8.80;99.90;;;;;;5050987;28;20268;-61
2023/09/25 01:47:56;;;;;;;0.40;0.40;;;8.70;99.90;;;;;;5051100;28;20309;-62
2023/09/25 01:50:27;;;;;;;0.80;0.80;;;8.70;99.90;;;;;;5051107;28;20181;-62
2023/09/25 01:52:57;;;;;;;0.40;0.40;;;8.70;99.90;;;;;;5050941;28;20201;-62
2023/09/25 01:55:26;;;;;;;0.60;0.40;;;8.60;99.90;;;;;;5051731;28;20220;-62
2023/09/25 01:57:52;;;;;;;0.50;0.50;;;8.60;99.90;;;;;;5050862;28;20261;-62
2023/09/25 02:00:18;;;;;;;0.50;0.43;;;8.60;99.90;;;;;;5051002;28;20281;-62
2023/09/25 02:02:44;;;;;;;0.50;0.50;;;8.60;99.90;;;;;;5050886;28;20218;-62
2023/09/25 02:05:10;;;;;;;0.43;0.43;;;8.50;99.90;;;;;;5050859;28;20181;-63
2023/09/25 02:07:36;;;;;;;0.93;0.50;;;8.40;99.90;;;;;;5032823;28;20620;-62
2023/09/25 02:10:01;;;;;;;0.40;0.40;;;8.40;99.90;;;;;;5050996;28;20170;-62
2023/09/25 02:12:27;;;;;;;0.60;0.60;;;8.40;99.90;;;;;;5050872;28;20913;-61
2023/09/25 02:15:00;;;;;;;0.57;0.57;;;8.40;99.90;;;;;;5050898;28;20182;-61
2023/09/25 02:17:27;;;;;;;0.60;0.60;;;8.40;99.90;;;;;;5050655;28;20178;-63
2023/09/25 02:19:54;;;;;;;0.38;0.38;;;8.40;99.90;;;;;;5050690;28;20187;-61
2023/09/25 02:22:20;;;;;;;1.02;0.85;;;8.50;99.90;;;;;;5050945;28;20557;-62
2023/09/25 02:24:45;;;;;;;0.60;0.60;;;8.50;99.90;;;;;;5050935;28;20186;-62
2023/09/25 02:27:11;;;;;;;0.50;0.50;;;8.60;99.90;;;;;;5050881;28;20170;-61
2023/09/25 02:29:37;;;;;;;0.40;0.40;;;8.50;99.90;;;;;;5050696;28;20181;-62
2023/09/25 02:32:02;;;;;;;0.40;0.40;;;8.50;99.90;;;;;;5053311;28;20213;-62
2023/09/25 02:34:28;;;;;;;0.60;0.50;;;8.50;99.90;;;;;;5054273;28;20177;-62
2023/09/25 02:36:54;;;;;;;0.97;0.53;;;8.50;99.90;;;;;;5054093;28;20311;-62
2023/09/25 02:39:19;;;;;;;0.60;0.60;;;8.50;99.90;;;;;;5054241;28;20583;-62
2023/09/25 02:41:45;;;;;;;0.70;0.70;;;8.50;99.90;;;;;;5054287;28;20193;-62
2023/09/25 02:44:10;;;;;;;0.43;0.40;;;8.50;99.90;;;;;;5054614;28;20264;-61
2023/09/25 02:46:36;;;;;;;0.60;0.60;;;8.50;99.90;;;;;;5052613;28;20609;-62
2023/09/25 02:49:02;;;;;;;0.40;0.40;;;8.50;99.90;;;;;;5053998;28;20257;-62
2023/09/25 02:51:28;;;;;;;0.40;0.40;;;8.50;99.90;;;;;;5052662;28;20257;-62
2023/09/25 02:53:54;;;;;;;0.50;0.50;;;8.50;99.90;;;;;;5053952;28;20635;-62
2023/09/25 02:56:20;;;;;;;0.40;0.40;;;8.50;99.90;;;;;;5053569;28;20413;-62
2023/09/25 02:58:46;;;;;;;1.07;1.07;;;8.40;99.90;;;;;;5053942;28;20288;-62
2023/09/25 03:01:12;;;;;;;0.40;0.40;;;8.40;99.90;;;;;;5053695;28;20190;-61
2023/09/25 03:03:40;;;;;;;1.20;0.90;;;8.30;99.90;;;;;;5053239;28;20233;-60
2023/09/25 03:06:06;;;;;;;0.60;0.50;;;8.30;99.90;;;;;;5053265;28;20926;-61
2023/09/25 03:08:33;;;;;;;1.35;0.70;;;8.30;99.90;;;;;;5053531;28;20170;-61
2023/09/25 03:10:59;;;;;;;1.02;0.90;;;8.30;99.90;;;;;;5053715;28;20177;-61
2023/09/25 03:13:24;;;;;;;1.00;0.83;;;8.20;99.90;;;;;;5053638;28;20668;-61
2023/09/25 03:15:50;;;;;;;0.90;0.90;;;8.30;99.90;;;;;;5053495;28;20178;-62
2023/09/25 03:18:16;;;;;;;0.77;0.73;;;8.40;99.90;;;;;;5053452;28;20177;-62
2023/09/25 03:20:42;;;;;;;1.17;0.50;;;8.40;99.90;;;;;;5053104;28;20204;-62
2023/09/25 03:23:09;;;;;;;0.68;0.50;;;8.40;99.90;;;;;;5053398;28;20659;-62
2023/09/25 03:25:35;;;;;;;0.40;0.40;;;8.40;99.90;;;;;;5052995;28;20189;-61
2023/09/25 03:28:02;;;;;;;0.50;0.50;;;8.40;99.90;;;;;;5053531;28;20173;-62
2023/09/25 03:30:29;;;;;;;0.60;0.60;;;8.40;99.90;;;;;;5053307;28;20212;-62
2023/09/25 03:32:55;;;;;;;2.72;1.02;;;8.30;99.90;;;;;;5053195;28;20327;-63
2023/09/25 03:35:23;;;;;;;0.40;0.40;;;8.30;99.90;;;;;;5053167;28;20262;-62
2023/09/25 03:37:49;;;;;;;1.88;0.50;;;8.30;99.90;;;;;;5053005;28;20777;-62
2023/09/25 03:40:15;;;;;;;0.67;0.67;;;8.30;99.90;;;;;;5053127;28;20206;-62
2023/09/25 03:42:41;;;;;;;0.53;0.43;;;8.40;99.90;;;;;;5052298;28;20271;-63
2023/09/25 03:45:08;;;;;;;0.70;0.52;;;8.40;99.90;;;;;;5053102;28;20309;-62
2023/09/25 03:47:35;;;;;;;0.50;0.43;;;8.30;99.90;;;;;;5052792;28;20265;-62
2023/09/25 03:50:02;;;;;;;0.82;0.40;;;8.40;99.90;;;;;;5052954;28;20185;-61
2023/09/25 03:52:28;;;;;;;0.60;0.60;;;8.40;99.90;;;;;;5052673;28;20194;-62
2023/09/25 03:54:54;;;;;;;0.40;0.40;;;8.20;99.90;;;;;;5052764;28;20221;-62
2023/09/25 03:57:20;;;;;;;0.40;0.40;;;8.10;99.90;;;;;;5052536;28;20205;-61
2023/09/25 03:59:46;;;;;;;0.40;0.40;;;8.10;99.90;;;;;;5052997;28;20580;-62
2023/09/25 04:02:11;;;;;;;0.40;0.40;;;8.10;99.90;;;;;;5052598;28;20440;-62
2023/09/25 04:04:37;;;;;;;0.50;0.50;;;8.20;99.90;;;;;;5052805;28;20399;-62
2023/09/25 04:07:03;;;;;;;0.70;0.70;;;8.20;99.90;;;;;;5052309;28;20223;-62
2023/09/25 04:09:30;;;;;;;0.40;0.40;;;8.30;99.90;;;;;;5052851;28;20197;-62
2023/09/25 04:11:57;;;;;;;0.40;0.40;;;8.30;99.90;;;;;;5052501;28;20302;-61
2023/09/25 04:14:23;;;;;;;1.17;0.93;;;8.30;99.90;;;;;;5052592;28;20185;-61
2023/09/25 04:16:49;;;;;;;0.80;0.80;;;8.20;99.90;;;;;;5052179;28;20173;-62
2023/09/25 04:19:15;;;;;;;2.50;1.07;;;8.20;99.90;;;;;;5052457;28;20561;-62
2023/09/25 04:21:41;;;;;;;0.40;0.40;;;8.20;99.90;;;;;;5052115;28;20180;-62
2023/09/25 04:24:10;;;;;;;0.60;0.57;;;8.10;99.90;;;;;;5052367;28;20570;-62
2023/09/25 04:26:39;;;;;;;0.40;0.40;;;8.00;99.90;;;;;;5052063;28;20176;-63
2023/09/25 04:29:05;;;;;;;0.40;0.40;;;7.90;99.90;;;;;;5052325;28;20181;-62
2023/09/25 04:31:31;;;;;;;0.73;0.60;;;7.80;99.90;;;;;;5052154;28;20188;-62
2023/09/25 04:33:56;;;;;;;0.60;0.60;;;7.90;99.90;;;;;;5052069;28;20734;-61
2023/09/25 04:36:23;;;;;;;0.50;0.50;;;7.90;99.90;;;;;;5052630;28;20227;-62
2023/09/25 04:38:49;;;;;;;0.40;0.40;;;8.00;99.90;;;;;;5052158;28;20217;-62
2023/09/25 04:41:14;;;;;;;0.70;0.70;;;8.00;99.90;;;;;;5052036;28;20197;-62
2023/09/25 04:43:40;;;;;;;0.87;0.87;;;8.00;99.90;;;;;;5051856;28;20236;-62
2023/09/25 04:46:06;;;;;;;0.53;0.53;;;8.00;99.90;;;;;;5051584;28;20277;-63
2023/09/25 04:48:31;;;;;;;0.40;0.40;;;7.90;99.90;;;;;;5051910;28;20169;-62
2023/09/25 04:50:57;;;;;;;1.00;0.70;;;7.80;99.90;;;;;;5051789;28;20203;-62
2023/09/25 04:53:23;;;;;;;0.65;0.65;;;7.70;99.90;;;;;;5051575;28;20210;-63
2023/09/25 04:55:49;;;;;;;0.77;0.77;;;7.70;99.90;;;;;;5051478;28;20177;-61
2023/09/25 04:58:14;;;;;;;0.60;0.60;;;7.70;99.90;;;;;;5051751;28;20704;-61
2023/09/25 05:00:41;;;;;;;0.60;0.60;;;7.60;99.90;;;;;;5051530;28;20725;-63
2023/09/25 05:03:07;;;;;;;2.83;2.70;;;7.50;99.90;;;;;;5058704;28;20211;-60
2023/09/25 05:05:33;;;;;;;0.40;0.40;;;7.70;99.90;;;;;;5071174;28;20177;-62
2023/09/25 05:07:59;;;;;;;1.57;1.17;;;7.70;99.90;;;;;;5071795;28;20641;-62
2023/09/25 05:10:27;;;;;;;1.17;0.80;;;7.60;99.90;;;;;;5071705;28;20411;-61
2023/09/25 05:12:54;;;;;;;1.05;0.95;;;7.50;99.90;;;;;;5071788;28;20521;-60
2023/09/25 05:15:21;;;;;;;1.00;0.88;;;7.50;99.90;;;;;;5071345;28;20763;-61
2023/09/25 05:17:47;;;;;;;0.50;0.50;;;7.40;99.90;;;;;;5071138;28;20184;-62
2023/09/25 05:20:18;;;;;;;1.08;0.60;;;7.40;99.90;;;;;;5071620;28;20253;-62
2023/09/25 05:22:51;;;;;;;0.50;0.50;;;7.40;99.90;;;;;;5071420;28;20192;-60
2023/09/25 05:25:18;;;;;;;1.05;0.90;;;7.40;99.90;;;;;;5071391;28;20524;-61
2023/09/25 05:27:50;;;;;;;0.77;0.75;;;7.40;99.90;;;;;;5071276;28;20235;-61
2023/09/25 05:30:20;;;;;;;0.68;0.68;;;7.40;99.90;;;;;;5071286;28;20177;-61
2023/09/25 05:32:51;;;;;;;1.63;1.23;;;7.40;99.90;;;;;;5071186;28;20191;-63
2023/09/25 05:35:18;;;;;;;0.40;0.40;;;7.50;99.90;;;;;;5071379;28;20195;-60
2023/09/25 05:37:45;;;;;;;2.20;1.33;;;7.50;99.90;;;;;;5071019;28;20729;-61
2023/09/25 05:40:12;;;;;;;0.50;0.50;;;7.50;99.90;;;;;;5053223;28;20213;-62
2023/09/25 05:42:39;;;;;;;0.93;0.93;;;7.50;99.90;;;;;;5071163;28;20189;-62
2023/09/25 05:45:06;;;;;;;0.40;0.40;;;7.60;99.90;;;;;;5071117;28;20176;-62
2023/09/25 05:47:33;;;;;;;0.40;0.40;;;7.60;99.90;;;;;;5070828;28;20179;-61
2023/09/25 05:49:59;;;;;;;0.30;0.30;;;7.50;99.90;;;;;;5071161;28;20256;-61
2023/09/25 05:52:24;;;;;;;0.60;0.60;;;7.50;99.90;;;;;;5071036;28;20199;-62
2023/09/25 05:54:51;;;;;;;0.40;0.40;;;7.60;99.90;;;;;;5071160;28;20503;-61
2023/09/25 05:57:16;;;;;;;0.38;0.38;;;7.70;99.90;;;;;;5070865;28;20279;-62
2023/09/25 05:59:43;;;;;;;0.40;0.40;;;7.70;99.90;;;;;;5070819;28;20636;-61
2023/09/25 06:02:08;;;;;;;0.40;0.40;;;7.70;99.90;;;;;;5070953;28;20279;-61
2023/09/25 06:04:36;;;;;;;0.93;0.93;;;7.70;99.90;;;;;;5070989;28;20256;-61
2023/09/25 06:07:02;;;;;;;0.30;0.30;;;7.70;99.90;;;;;;5073117;28;20403;-62
2023/09/25 06:09:28;;;;;;;0.60;0.60;;;7.70;99.90;;;;;;5074987;28;20222;-62
2023/09/25 06:11:54;;;;;;;0.43;0.43;;;7.60;99.90;;;;;;5074836;28;20702;-62
2023/09/25 06:14:21;;;;;;;0.50;0.50;;;7.60;99.90;;;;;;5074729;28;20211;-61
2023/09/25 06:16:51;;;;;;;1.42;1.42;;;7.60;99.90;;;;;;5074386;28;20181;-62
2023/09/25 06:19:19;;;;;;;0.40;0.40;;;7.70;99.90;;;;;;5074176;28;20441;-62
2023/09/25 06:21:45;;;;;;;0.82;0.82;;;7.70;99.90;;;;;;5074648;28;20708;-62
2023/09/25 06:24:12;;;;;;;0.30;0.30;;;7.60;99.90;;;;;;5074513;28;20258;-62
2023/09/25 06:26:39;;;;;;;1.30;0.65;;;7.60;99.90;;;;;;5074032;28;20170;-61
2023/09/25 06:29:06;;;;;;;0.60;0.60;;;7.60;99.90;;;;;;5074595;28;20176;-62
2023/09/25 06:31:32;;;;;;;0.40;0.40;;;7.60;99.90;;;;;;5073830;28;20177;-62
2023/09/25 06:33:58;;;;;;;0.40;0.40;;;7.70;99.90;;;;;;5072752;28;20513;-62
2023/09/25 06:36:24;;;;;;;1.25;0.90;;;7.80;99.90;;;;;;5072087;28;20261;-61
2023/09/25 06:38:50;;;;;;;1.53;1.37;;;8.00;99.90;;;;;;5072380;28;20200;-62
2023/09/25 06:41:15;;;;;;;0.67;0.60;;;8.10;99.90;;;;;;5072470;28;20205;-62
2023/09/25 06:43:41;;;;;;;1.73;1.63;;;8.30;99.90;;;;;;5072323;28;20724;-62
2023/09/25 06:46:06;;;;;;;3.40;0.80;;;8.70;99.90;;;;;;5072289;28;20170;-62
2023/09/25 06:48:32;;;;;;;1.03;1.03;;;9.30;99.90;;;;;;5073197;28;20211;-63
2023/09/25 06:50:58;;;;;;;0.80;0.70;;;10.00;99.90;;;;;;5074071;28;20558;-62
2023/09/25 06:53:24;;;;;;;1.70;1.00;;;10.70;99.90;;;;;;5073966;28;20185;-63
2023/09/25 06:55:49;;;;;;;0.70;0.70;;;11.60;98.70;;;;;;5073622;28;20410;-63
2023/09/25 06:58:15;;;;;;;0.67;0.60;;;12.70;96.90;;;;;;5073651;28;20169;-63
2023/09/25 07:00:43;;;;;;;2.30;1.00;;;13.80;94.80;;;;;;5073295;28;20689;-63
2023/09/25 07:03:09;;;;;;;2.30;0.60;;;15.10;93.30;;;;;;5073672;28;20213;-63
2023/09/25 07:05:34;;;;;;;0.80;0.60;;;16.50;90.20;;;;;;5073432;28;20958;-63
2023/09/25 07:08:00;;;;;;;1.43;0.50;;;17.70;84.60;;;;;;5073634;28;20889;-63
2023/09/25 07:10:26;;;;;;;0.53;0.53;;;18.40;80.40;;;;;;5073630;28;20177;-63
2023/09/25 07:12:52;;;;;;;0.70;0.60;;;19.30;79.10;;;;;;5073835;28;20216;-64
2023/09/25 07:15:19;;;;;;;0.97;0.50;;;20.70;74.70;;;;;;5072861;28;20404;-64
2023/09/25 07:17:47;;;;;;;0.40;0.40;;;22.20;69.30;;;;;;5072054;28;20177;-64
2023/09/25 07:20:12;;;;;;;1.03;0.60;;;23.80;62.60;;;;;;5073482;28;20542;-64
2023/09/25 07:22:38;;;;;;;0.73;0.60;;;25.60;57.60;;;;;;5073498;28;20838;-64
2023/09/25 07:25:04;;;;;;;2.63;0.60;;;27.10;54.40;;;;;;5073319;28;20170;-64
2023/09/25 07:27:30;;;;;;;0.60;0.60;;;28.30;49.80;;;;;;5073084;28;20172;-64
2023/09/25 07:29:56;;;;;;;0.80;0.60;;;29.10;47.30;;;;;;5073337;28;20457;-64
2023/09/25 07:32:22;;;;;;;0.70;0.70;;;29.20;46.20;;;;;;5073229;28;20835;-64
2023/09/25 07:34:48;;;;;;;0.87;0.80;;;29.00;45.50;;;;;;5073340;28;20177;-64
2023/09/25 07:37:13;;;;;;;0.50;0.40;;;28.50;45.40;;;;;;5072898;28;20228;-64
2023/09/25 07:39:40;;;;;;;0.60;0.60;;;27.90;45.90;;;;;;5072836;28;20193;-64
2023/09/25 07:42:06;;;;;;;0.60;0.60;;;27.60;45.40;;;;;;5073167;28;20183;-64
2023/09/25 07:44:34;;;;;;;1.17;0.70;;;28.00;45.00;;;;;;5073056;28;20506;-65
2023/09/25 07:47:01;;;;;;;0.60;0.60;;;29.00;44.00;;;;;;5072389;28;20439;-64
2023/09/25 07:49:27;;;;;;;0.77;0.70;;;30.30;42.40;;;;;;5072704;28;20529;-64
2023/09/25 07:51:53;;;;;;;0.80;0.70;;;31.30;40.70;;;;;;5072591;28;20800;-64
2023/09/25 07:54:20;;;;;;;0.50;0.50;;;32.30;39.60;;;;;;5072836;28;20852;-64
2023/09/25 07:56:46;;;;;;;0.60;0.60;;;33.00;38.70;;;;;;5072645;28;20416;-64
2023/09/25 07:59:13;;;;;;;0.70;0.50;;;33.80;37.80;;;;;;5072897;28;20451;-64
2023/09/25 08:01:39;;;;;;;3.70;0.70;;;34.40;36.10;;;;;;5054750;28;20416;-64
2023/09/25 08:04:05;;;;;;;0.77;0.53;;;34.60;35.10;;;;;;5072380;28;20443;-65
2023/09/25 08:06:31;;;;;;;1.10;0.60;;;34.90;34.70;;;;;;5072421;28;20941;-64
2023/09/25 08:08:57;;;;;;;0.97;0.40;;;35.20;33.90;;;;;;5072565;28;20490;-64
2023/09/25 08:11:24;;;;;;;0.60;0.50;;;35.50;33.90;;;;;;5072525;28;20410;-64
2023/09/25 08:13:50;;;;;;;0.60;0.60;;;35.80;33.00;;;;;;5072422;28;20932;-64
2023/09/25 08:16:18;;;;;;;1.03;0.43;;;36.20;31.50;;;;;;5072144;28;20404;-64
2023/09/25 08:18:45;;;;;;;0.60;0.50;;;36.10;31.30;;;;;;5072392;28;20454;-64
2023/09/25 08:21:10;;;;;;;1.63;0.53;;;36.00;31.80;;;;;;5072030;28;20420;-63
2023/09/25 08:23:36;;;;;;;0.60;0.57;;;36.20;31.40;;;;;;5071419;28;20424;-62
2023/09/25 08:26:05;;;;;;;1.60;0.57;;;36.50;30.60;;;;;;5071221;28;20165;-61
2023/09/25 08:28:32;;;;;;;0.50;0.47;;;36.40;30.90;;;;;;5071851;28;20176;-62
2023/09/25 08:30:58;;;;;;;1.00;0.80;;;36.30;31.10;;;;;;5072185;28;20418;-61
2023/09/25 08:33:23;;;;;;;2.20;0.80;;;36.50;31.00;;;;;;5072047;28;20424;-62
2023/09/25 08:35:49;;;;;;;0.97;0.70;;;36.70;31.20;;;;;;5071700;28;20166;-62
2023/09/25 08:38:15;;;;;;;0.70;0.60;;;36.90;30.90;;;;;;5072046;28;20173;-62
2023/09/25 08:40:48;;;;;;;0.80;0.73;;;37.30;31.20;;;;;;5071589;28;20205;-62
2023/09/25 08:43:14;;;;;;;1.13;0.80;;;37.50;30.00;;;;;;5071056;28;20312;-61
2023/09/25 08:45:41;;;;;;;0.83;0.40;;;37.70;30.70;;;;;;5070964;28;20498;-62
2023/09/25 08:48:10;;;;;;;0.70;0.40;;;37.90;30.90;;;;;;5070998;28;20584;-62
2023/09/25 08:50:38;;;;;;;0.90;0.63;;;38.20;30.20;;;;;;5070789;28;20415;-62
2023/09/25 08:53:05;;;;;;;2.00;0.50;;;38.40;29.30;;;;;;5070767;28;20420;-61
2023/09/25 08:55:32;;;;;;;0.50;0.50;;;38.40;29.60;;;;;;5070512;28;20400;-62
2023/09/25 08:58:03;;;;;;;1.00;0.60;;;38.30;29.60;;;;;;5071230;28;20388;-61
2023/09/25 09:00:29;;;;;;;0.40;0.40;;;38.30;30.00;;;;;;5070412;28;20487;-62
2023/09/25 09:02:55;;;;;;;0.60;0.50;;;38.40;30.50;;;;;;5070823;28;20797;-63
2023/09/25 09:05:21;;;;;;;0.80;0.60;;;38.60;30.50;;;;;;5071356;28;20406;-61
2023/09/25 09:08:01;;;;;;;1.03;0.93;;;38.60;29.30;;;;;;5071408;28;20173;-62
2023/09/25 09:10:31;;;;;;;0.87;0.67;;;38.60;29.40;;;;;;5071556;28;20162;-62
2023/09/25 09:12:56;;;;;;;0.67;0.53;;;38.60;29.40;;;;;;5071424;28;20432;-61
2023/09/25 09:15:28;;;;;;;1.13;0.50;;;38.60;29.80;;;;;;5071146;28;20414;-62
2023/09/25 09:17:57;;;;;;;3.20;0.73;;;38.50;29.80;;;;;;5071419;28;20551;-62
2023/09/25 09:20:37;;;;;;;0.60;0.57;;;38.20;28.50;;;;;;5071339;28;20451;-65
2023/09/25 09:23:03;;;;;;;0.70;0.60;;;38.10;29.10;;;;;;5071350;28;20426;-62
2023/09/25 09:25:33;;;;;;;0.70;0.40;;;37.30;28.60;;;;;;5071796;28;20427;-63
2023/09/25 09:27:59;;;;;;;1.43;0.50;;;36.60;29.60;;;;;;5071312;28;20404;-62
2023/09/25 09:30:28;;;;;;;2.03;1.00;;;36.40;29.70;;;;;;5071563;28;20848;-62
2023/09/25 09:32:54;;;;;;;6.30;0.77;;;36.60;29.50;;;;;;5071315;28;20460;-62
2023/09/25 09:35:27;;;;;;;0.57;0.50;;;36.80;29.90;;;;;;5071359;28;20408;-63
2023/09/25 09:37:54;;;;;;;1.13;1.03;;;37.10;29.10;;;;;;5071185;28;20170;-62
2023/09/25 09:40:21;;;;;;;0.83;0.60;;;36.90;27.80;;;;;;5071013;28;21034;-62
2023/09/25 09:42:51;;;;;;;0.57;0.47;;;36.70;28.50;;;;;;5075363;28;20419;-62
2023/09/25 09:45:18;;;;;;;0.90;0.87;;;36.70;29.20;;;;;;5075291;28;20403;-62
2023/09/25 09:47:46;;;;;;;0.40;0.40;;;36.20;28.60;;;;;;5075202;28;20428;-63
2023/09/25 09:50:13;;;;;;;0.50;0.50;;;36.10;30.10;;;;;;5075549;28;20935;-63
2023/09/25 09:52:40;;;;;;;0.77;0.60;;;35.50;29.80;;;;;;5075202;28;20427;-62
2023/09/25 09:55:08;;;;;;;1.30;0.87;;;34.40;29.20;;;;;;5075082;28;20712;-65
2023/09/25 09:57:34;;;;;;;0.60;0.50;;;34.10;30.90;;;;;;5074901;28;20902;-64
2023/09/25 10:00:00;;;;;;;0.40;0.40;;;34.00;32.00;;;;;;5075165;28;20447;-62
2023/09/25 10:02:28;;;;;;;0.97;0.80;;;33.80;31.40;;;;;;5075035;28;20450;-60
2023/09/25 10:04:55;;;;;;;0.60;0.60;;;32.80;33.10;;;;;;5074781;28;20165;-60
2023/09/25 10:07:21;;;;;;;0.60;0.50;;;32.70;34.10;;;;;;5074609;28;20407;-60
2023/09/25 10:09:58;;;;;;;0.60;0.60;;;32.70;33.40;;;;;;5074842;28;20465;-60
2023/09/25 10:12:42;;;;;;;0.97;0.90;;;32.40;32.00;;;;;;5075004;28;20423;-60
2023/09/25 10:15:08;;;;;;;1.00;0.43;;;32.00;34.30;;;;;;5074884;28;20403;-60
2023/09/25 10:17:41;;;;;;;0.90;0.77;;;31.80;34.00;;;;;;5074194;28;20395;-66
2023/09/25 10:20:33;;;;;;;0.67;0.40;;;31.30;33.70;;;;;;5074093;28;20816;-61
2023/09/25 10:23:10;;;;;;;0.73;0.60;;;30.70;33.50;;;;;;5074577;28;20415;-62
2023/09/25 10:25:45;;;;;;;0.40;0.40;;;30.40;34.50;;;;;;5074079;28;20754;-62
2023/09/25 10:28:32;;;;;;;3.43;0.60;;;30.20;34.60;;;;;;5074382;28;20406;-61
2023/09/25 10:30:59;;;;;;;0.70;0.50;;;29.80;35.80;;;;;;5074458;28;20414;-63
2023/09/25 10:33:29;;;;;;;0.80;0.63;;;29.40;35.40;;;;;;5074682;28;20427;-64
2023/09/25 10:36:03;;;;;;;0.60;0.53;;;29.20;37.90;;;;;;5074119;28;20438;-64
2023/09/25 10:38:31;;;;;;;0.90;0.50;;;28.90;36.00;;;;;;5074388;28;20403;-64
2023/09/25 10:41:04;;;;;;;0.60;0.60;;;28.60;37.00;;;;;;5074107;28;20451;-64
2023/09/25 10:43:31;;;;;;;0.60;0.40;;;28.10;39.80;;;;;;5074304;28;20724;-63
2023/09/25 10:45:57;;;;;;;0.67;0.67;;;27.70;39.60;;;;;;5073921;28;20408;-63
2023/09/25 10:48:24;;;;;;;1.07;0.50;;;26.90;40.20;;;;;;5074198;28;20410;-65
2023/09/25 10:50:49;;;;;;;0.77;0.70;;;26.20;41.10;;;;;;5074209;28;20258;-63
2023/09/25 10:53:16;;;;;;;0.67;0.67;;;25.50;42.70;;;;;;5073090;28;20485;-63
2023/09/25 10:55:42;;;;;;;0.63;0.60;;;24.90;44.50;;;;;;5073754;28;20248;-63
2023/09/25 10:58:12;;;;;;;0.70;0.70;;;24.40;46.30;;;;;;5063506;28;20439;-62
2023/09/25 11:00:39;;;;;;;0.60;0.60;;;24.00;48.00;;;;;;5053886;28;20973;-63
2023/09/25 11:03:06;;;;;;;1.07;1.07;;;23.70;48.70;;;;;;5053527;28;20492;-64
2023/09/25 11:05:35;;;;;;;0.83;0.83;;;23.60;49.50;;;;;;5053628;28;20376;-63
2023/09/25 11:08:03;;;;;;;0.90;0.90;;;23.30;49.70;;;;;;5052972;28;20897;-63
2023/09/25 11:10:34;;;;;;;0.70;0.70;;;22.90;50.60;;;;;;5053489;28;20909;-64
2023/09/25 11:13:00;;;;;;;1.43;0.60;;;22.60;50.60;;;;;;5053062;28;20526;-63
2023/09/25 11:15:34;;;;;;;0.70;0.70;;;22.30;51.40;;;;;;5053267;28;20937;-63
2023/09/25 11:18:00;;;;;;;1.60;0.80;;;22.10;51.30;;;;;;5053761;28;21082;-63
2023/09/25 11:20:30;;;;;;;1.70;0.80;;;22.10;52.20;;;;;;5053560;28;20459;-63
2023/09/25 11:23:10;;;;;;;0.60;0.60;;;22.10;52.80;;;;;;5053600;28;20392;-63
2023/09/25 11:25:54;;;;;;;1.87;0.73;;;22.00;53.60;;;;;;5053346;28;20404;-63
2023/09/25 11:28:21;;;;;;;0.70;0.70;;;21.90;53.40;;;;;;5053668;28;20411;-63
2023/09/25 11:30:47;;;;;;;0.57;0.53;;;21.90;53.70;;;;;;5053487;28;20387;-63
2023/09/25 11:33:18;;;;;;;0.70;0.70;;;21.80;54.20;;;;;;5053632;28;20435;-63
2023/09/25 11:35:45;;;;;;;1.97;1.17;;;21.70;54.40;;;;;;5053315;28;20466;-63
2023/09/25 11:38:17;;;;;;;1.47;1.03;;;21.50;54.60;;;;;;5053326;28;20385;-63
2023/09/25 11:40:43;;;;;;;0.97;0.60;;;21.50;55.90;;;;;;5053375;28;20857;-63
2023/09/25 11:43:09;;;;;;;1.00;0.70;;;21.60;55.30;;;;;;5053215;28;20428;-63
2023/09/25 11:45:35;;;;;;;0.50;0.50;;;21.60;56.20;;;;;;5052886;28;20408;-63
2023/09/25 11:48:01;;;;;;;1.20;0.60;;;21.70;55.90;;;;;;5053182;28;20404;-63
2023/09/25 11:50:28;;;;;;;1.00;0.93;;;21.80;55.70;;;;;;5053101;28;20185;-63
2023/09/25 11:52:53;;;;;;;1.27;1.03;;;21.70;56.50;;;;;;5052938;28;20434;-64
2023/09/25 11:55:19;;;;;;;0.80;0.80;;;21.70;57.10;;;;;;5053036;28;20407;-63
2023/09/25 11:57:46;;;;;;;0.60;0.60;;;21.70;57.00;;;;;;5052791;28;20188;-63
2023/09/25 12:00:15;;;;;;;0.60;0.60;;;21.80;57.70;;;;;;5052812;28;20233;-64
2023/09/25 12:02:43;;;;;;;0.70;0.70;;;21.70;57.40;;;;;;5052672;28;20526;-63
2023/09/25 12:05:09;;;;;;;1.40;0.63;;;21.60;57.40;;;;;;5052256;28;20392;-63
2023/09/25 12:07:36;;;;;;;1.00;0.90;;;21.50;57.80;;;;;;5059810;28;20380;-64
2023/09/25 12:10:09;;;;;;;0.70;0.70;;;21.50;58.00;;;;;;5072896;28;20823;-63
2023/09/25 12:12:39;;;;;;;2.20;0.80;;;21.60;58.50;;;;;;5072535;28;20459;-63
2023/09/25 12:15:07;;;;;;;0.70;0.70;;;21.70;57.70;;;;;;5072669;28;20411;-63
2023/09/25 12:17:34;;;;;;;1.00;0.70;;;21.70;58.20;;;;;;5072258;28;20414;-63
2023/09/25 12:20:01;;;;;;;1.80;1.30;;;21.80;59.90;;;;;;5054311;28;21226;-64
2023/09/25 12:22:27;;;;;;;0.80;0.80;;;21.70;62.90;;;;;;5072361;28;20449;-63
2023/09/25 12:24:53;;;;;;;3.50;0.87;;;21.80;60.10;;;;;;5072439;28;20895;-63
2023/09/25 12:27:18;;;;;;;2.10;0.90;;;21.70;64.70;;;;;;5071543;28;20164;-64
2023/09/25 12:29:45;;;;;;;1.00;0.90;;;21.80;60.70;;;;;;5072048;28;20465;-64
2023/09/25 12:32:11;;;;;;;2.07;0.97;;;21.80;62.70;;;;;;5072014;28;20277;-63
2023/09/25 12:34:37;;;;;;;1.00;0.80;;;21.70;60.40;;;;;;5072267;28;20417;-63
2023/09/25 12:37:03;;;;;;;0.70;0.60;;;21.80;60.20;;;;;;5071894;28;20422;-63
2023/09/25 12:39:29;;;;;;;0.90;0.60;;;21.70;61.40;;;;;;5072048;28;20455;-63
2023/09/25 12:41:54;;;;;;;1.07;0.90;;;21.70;63.60;;;;;;5072015;28;20534;-64
2023/09/25 12:44:20;;;;;;;2.07;0.80;;;21.60;61.10;;;;;;5072230;28;20661;-63
2023/09/25 12:46:47;;;;;;;1.20;1.10;;;21.50;61.00;;;;;;5071736;28;20171;-64
2023/09/25 12:49:12;;;;;;;0.60;0.60;;;21.50;61.70;;;;;;5072072;28;20183;-63
2023/09/25 12:51:38;;;;;;;1.10;1.00;;;21.50;62.70;;;;;;5071894;28;20467;-63